createdAt,value
2019-05-12T00:00:07.854Z,99237.02
2019-05-12T00:02:36.007Z,99236.41
2019-05-12T00:05:03.566Z,99242.91
2019-05-12T00:07:31.045Z,99249.01
2019-05-12T00:09:58.864Z,99264.80
2019-05-12T00:12:27.807Z,99272.03
2019-05-12T00:14:55.432Z,99262.67
2019-05-12T00:17:22.925Z,99263.63
2019-05-12T00:19:50.436Z,99260.86
2019-05-12T00:22:19.569Z,99260.18
2019-05-12T00:24:47.886Z,99257.29
2019-05-12T00:27:17.835Z,99265.55
2019-05-12T00:29:45.592Z,99264.45
2019-05-12T00:32:13.180Z,99268.13
2019-05-12T00:34:40.920Z,99278.33
2019-05-12T00:37:08.435Z,99275.44
2019-05-12T00:39:38.119Z,99286.08
2019-05-12T00:42:05.155Z,99288.77
2019-05-12T00:44:32.644Z,99294.84
2019-05-12T00:47:00.145Z,99299.59
2019-05-12T00:49:28.963Z,99299.11
2019-05-12T00:51:58.654Z,99301.39
2019-05-12T00:54:28.247Z,99307.32
2019-05-12T00:56:55.264Z,99303.11
2019-05-12T00:59:22.757Z,99308.75
2019-05-12T01:01:52.301Z,99310.33
2019-05-12T01:04:19.793Z,99305.75
2019-05-12T01:06:49.052Z,99320.79
2019-05-12T01:09:17.625Z,99316.06
2019-05-12T01:11:45.288Z,99323.95
2019-05-12T01:14:12.780Z,99336.02
2019-05-12T01:16:40.288Z,99331.54
2019-05-12T01:19:08.245Z,99339.84
2019-05-12T01:21:37.732Z,99333.88
2019-05-12T01:24:05.190Z,99341.90
2019-05-12T01:26:32.750Z,99340.85
2019-05-12T01:29:00.568Z,99344.04
2019-05-12T01:31:30.380Z,99345.22
2019-05-12T01:33:58.579Z,99345.95
2019-05-12T01:36:28.496Z,99344.25
2019-05-12T01:38:55.580Z,99351.97
2019-05-12T01:41:23.879Z,99352.84
2019-05-12T01:43:51.421Z,99352.90
2019-05-12T01:46:18.928Z,99360.48
2019-05-12T01:48:48.362Z,99364.23
2019-05-12T01:51:17.796Z,99371.05
2019-05-12T01:53:44.860Z,99378.34
2019-05-12T01:56:12.352Z,99380.97
2019-05-12T01:58:39.854Z,99386.69
2019-05-12T02:01:08.201Z,99392.98
2019-05-12T02:03:37.737Z,99392.01
2019-05-12T02:06:05.279Z,99399.58
2019-05-12T02:08:43.446Z,99407.00
2019-05-12T02:11:29.033Z,99404.83
2019-05-12T02:13:57.976Z,99412.55
2019-05-12T02:16:28.029Z,99417.07
2019-05-12T02:18:54.941Z,99409.85
2019-05-12T02:21:22.487Z,99416.09
2019-05-12T02:23:51.288Z,99417.69
2019-05-12T02:26:19.028Z,99426.55
2019-05-12T02:28:48.064Z,99428.26
2019-05-12T02:31:15.704Z,99435.97
2019-05-12T02:33:44.661Z,99445.19
2019-05-12T02:36:15.059Z,99451.36
2019-05-12T02:38:45.046Z,99455.66
2019-05-12T02:41:11.033Z,99454.48
2019-05-12T02:43:38.541Z,99456.31
2019-05-12T02:46:06.044Z,99461.11
2019-05-12T02:48:35.649Z,99467.08
2019-05-12T02:51:05.552Z,99472.59
2019-05-12T02:53:35.050Z,99465.60
2019-05-12T02:56:04.724Z,99472.39
2019-05-12T02:58:30.854Z,99472.59
2019-05-12T03:00:58.356Z,99474.36
2019-05-12T03:03:26.629Z,99476.20
2019-05-12T03:05:54.912Z,99486.11
2019-05-12T03:08:25.596Z,99481.88
2019-05-12T03:10:54.866Z,99489.73
2019-05-12T03:13:21.587Z,99497.05
2019-05-12T03:15:49.076Z,99496.41
2019-05-12T03:18:16.592Z,99499.44
2019-05-12T03:20:45.578Z,99505.06
2019-05-12T03:23:15.741Z,99511.42
2019-05-12T03:25:45.427Z,99508.44
2019-05-12T03:28:15.631Z,99510.28
2019-05-12T03:30:41.306Z,99510.77
2019-05-12T03:33:11.439Z,99509.48
2019-05-12T03:35:45.987Z,99507.78
2019-05-12T03:38:07.458Z,99511.48
2019-05-12T03:40:38.093Z,99515.73
2019-05-12T03:43:05.453Z,99523.31
2019-05-12T03:45:35.952Z,99531.00
2019-05-12T03:48:04.243Z,99534.15
2019-05-12T03:50:35.344Z,99544.70
2019-05-12T03:53:06.397Z,99547.11
2019-05-12T03:55:36.346Z,99554.48
2019-05-12T03:58:00.434Z,99554.39
2019-05-12T04:00:27.938Z,99555.83
2019-05-12T04:02:55.758Z,99563.62
2019-05-12T04:05:24.321Z,99561.05
2019-05-12T04:07:54.712Z,99567.97
2019-05-12T04:10:24.504Z,99574.00
2019-05-12T04:12:50.973Z,99576.16
2019-05-12T04:15:18.494Z,99585.33
2019-05-12T04:17:46.049Z,99593.11
2019-05-12T04:20:15.162Z,99589.28
2019-05-12T04:22:44.679Z,99588.59
2019-05-12T04:25:14.666Z,99593.35
2019-05-12T04:27:41.208Z,99596.89
2019-05-12T04:30:09.378Z,99600.64
2019-05-12T04:32:36.948Z,99606.59
2019-05-12T04:35:05.726Z,99612.54
2019-05-12T04:37:35.198Z,99613.72
2019-05-12T04:40:05.282Z,99623.86
2019-05-12T04:42:34.946Z,99621.26
2019-05-12T04:45:04.401Z,99622.40
2019-05-12T04:47:34.687Z,99620.81
2019-05-12T04:50:00.297Z,99617.43
2019-05-12T04:52:27.815Z,99624.77
2019-05-12T04:54:56.099Z,99624.84
2019-05-12T04:57:25.363Z,99634.05
2019-05-12T04:59:54.342Z,99634.98
2019-05-12T05:02:25.043Z,99636.41
2019-05-12T05:04:54.493Z,99639.83
2019-05-12T05:07:20.710Z,99642.89
2019-05-12T05:09:48.205Z,99650.19
2019-05-12T05:12:15.696Z,99645.73
2019-05-12T05:14:44.561Z,99655.88
2019-05-12T05:17:14.323Z,99662.53
2019-05-12T05:19:41.493Z,99669.32
2019-05-12T05:22:08.980Z,99663.47
2019-05-12T05:24:36.477Z,99676.64
2019-05-12T05:27:04.394Z,99679.52
2019-05-12T05:29:34.219Z,99682.54
2019-05-12T05:32:03.542Z,99689.96
2019-05-12T05:34:31.129Z,99682.46
2019-05-12T05:37:01.474Z,99690.72
2019-05-12T05:39:28.897Z,99699.62
2019-05-12T05:41:56.692Z,99704.75
2019-05-12T05:44:24.227Z,99710.70
2019-05-12T05:46:54.511Z,99706.64
2019-05-12T05:49:20.974Z,99715.95
2019-05-12T05:51:54.477Z,99713.89
2019-05-12T05:54:22.781Z,99724.31
2019-05-12T05:56:57.493Z,99729.36
2019-05-12T05:59:24.018Z,99729.98
2019-05-12T06:01:51.695Z,99735.86
2019-05-12T06:04:16.204Z,99735.46
2019-05-12T06:06:50.789Z,99739.07
2019-05-12T06:09:14.120Z,99731.73
2019-05-12T06:11:43.759Z,99738.45
2019-05-12T06:14:12.863Z,99739.50
2019-05-12T06:16:43.233Z,99740.33
2019-05-12T06:19:10.336Z,99741.73
2019-05-12T06:21:38.458Z,99748.56
2019-05-12T06:24:08.624Z,99751.86
2019-05-12T06:26:35.947Z,99747.18
2019-05-12T06:29:04.447Z,99742.64
2019-05-12T06:31:33.432Z,99746.73
2019-05-12T06:34:06.391Z,99758.45
2019-05-12T06:36:30.456Z,99755.39
2019-05-12T06:38:57.945Z,99762.12
2019-05-12T06:41:25.974Z,99756.03
2019-05-12T06:43:54.076Z,99765.82
2019-05-12T06:46:23.675Z,99769.49
2019-05-12T06:48:51.112Z,99776.57
2019-05-12T06:51:23.053Z,99782.02
2019-05-12T06:53:47.865Z,99777.92
2019-05-12T06:56:19.643Z,99783.83
2019-05-12T06:58:44.869Z,99792.45
2019-05-12T07:01:19.111Z,99796.40
2019-05-12T07:03:43.905Z,99794.39
2019-05-12T07:06:17.537Z,99805.96
2019-05-12T07:08:40.124Z,99795.92
2019-05-12T07:11:07.685Z,99793.73
2019-05-12T07:13:35.296Z,99801.58
2019-05-12T07:16:22.058Z,99809.48
2019-05-12T07:18:45.982Z,99821.20
2019-05-12T07:21:17.758Z,99824.86
2019-05-12T07:23:44.446Z,99834.34
2019-05-12T07:26:17.885Z,99829.83
2019-05-12T07:28:43.244Z,99829.19
2019-05-12T07:31:10.529Z,99834.97
2019-05-12T07:33:43.360Z,99840.64
2019-05-12T07:36:07.803Z,99846.38
2019-05-12T07:38:35.308Z,99838.56
2019-05-12T07:41:06.807Z,99846.48
2019-05-12T07:43:33.767Z,99860.03
2019-05-12T07:46:02.374Z,99851.70
2019-05-12T07:48:30.643Z,99858.42
2019-05-12T07:51:00.541Z,99853.93
2019-05-12T07:53:27.364Z,99856.17
2019-05-12T07:55:54.861Z,99859.32
2019-05-12T07:58:23.945Z,99858.96
2019-05-12T08:00:53.876Z,99862.74
2019-05-12T08:03:21.522Z,99858.50
2019-05-12T08:05:51.230Z,99862.90
2019-05-12T08:08:19.420Z,99863.13
2019-05-12T08:10:51.419Z,99858.22
2019-05-12T08:13:18.681Z,99868.97
2019-05-12T08:15:49.024Z,99865.68
2019-05-12T08:18:14.628Z,99864.28
2019-05-12T08:20:43.554Z,99857.97
2019-05-12T08:23:11.296Z,99852.84
2019-05-12T08:25:38.796Z,99855.97
2019-05-12T08:28:14.824Z,99861.97
2019-05-12T08:30:40.366Z,99864.03
2019-05-12T08:33:09.674Z,99866.93
2019-05-12T08:35:37.698Z,99868.55
2019-05-12T08:38:04.039Z,99866.64
2019-05-12T08:40:33.950Z,99863.03
2019-05-12T08:43:08.034Z,99858.49
2019-05-12T08:45:36.473Z,99862.22
2019-05-12T08:47:59.438Z,99863.87
2019-05-12T08:50:31.785Z,99868.81
2019-05-12T08:52:56.209Z,99862.45
2019-05-12T08:55:31.119Z,99870.98
2019-05-12T08:57:54.184Z,99876.45
2019-05-12T09:00:39.677Z,99864.34
2019-05-12T09:03:04.568Z,99875.56
2019-05-12T09:05:34.549Z,99876.59
2019-05-12T09:08:03.625Z,99888.70
2019-05-12T09:10:31.482Z,99892.72
2019-05-12T09:13:00.526Z,99891.67
2019-05-12T09:15:28.049Z,99892.84
2019-05-12T09:17:56.995Z,99888.61
2019-05-12T09:20:24.661Z,99888.76
2019-05-12T09:23:00.444Z,99896.79
2019-05-12T09:25:23.819Z,99893.93
2019-05-12T09:27:51.065Z,99897.64
2019-05-12T09:30:20.205Z,99903.14
2019-05-12T09:32:50.410Z,99905.20
2019-05-12T09:35:16.932Z,99900.37
2019-05-12T09:37:44.425Z,99900.31
2019-05-12T09:40:14.711Z,99899.91
2019-05-12T09:42:41.176Z,99907.33
2019-05-12T09:45:10.538Z,99901.99
2019-05-12T09:47:37.933Z,99902.03
2019-05-12T09:50:09.548Z,99918.36
2019-05-12T09:52:35.328Z,99922.50
2019-05-12T09:55:04.180Z,99920.64
2019-05-12T09:57:40.401Z,99924.69
2019-05-12T10:00:04.275Z,99917.50
2019-05-12T10:02:31.236Z,99909.06
2019-05-12T10:05:00.774Z,99905.44
2019-05-12T10:07:27.964Z,99909.03
2019-05-12T10:09:58.916Z,99913.98
2019-05-12T10:12:24.684Z,99924.28
2019-05-12T10:14:53.501Z,99919.89
2019-05-12T10:17:26.309Z,99924.80
2019-05-12T10:19:56.276Z,99938.09
2019-05-12T10:22:19.632Z,99942.33
2019-05-12T10:24:56.067Z,99938.80
2019-05-12T10:27:21.027Z,99949.47
2019-05-12T10:29:45.586Z,99941.03
2019-05-12T10:32:13.439Z,99936.92
2019-05-12T10:34:41.069Z,99932.22
2019-05-12T10:37:08.576Z,99942.11
2019-05-12T10:39:37.065Z,99950.00
2019-05-12T10:42:05.245Z,99944.19
2019-05-12T10:44:37.645Z,99947.61
2019-05-12T10:47:04.431Z,99944.41
2019-05-12T10:49:33.708Z,99944.73
2019-05-12T10:52:03.734Z,99955.11
2019-05-12T10:54:30.733Z,99964.23
2019-05-12T10:56:58.493Z,99961.55
2019-05-12T10:59:32.228Z,99959.55
2019-05-12T11:01:55.286Z,99961.56
2019-05-12T11:04:35.017Z,99956.74
2019-05-12T11:06:53.797Z,99957.28
2019-05-12T11:09:26.145Z,99959.81
2019-05-12T11:11:53.851Z,99968.03
2019-05-12T11:14:26.416Z,99961.57
2019-05-12T11:16:50.352Z,99979.25
2019-05-12T11:19:17.849Z,99970.38
2019-05-12T11:21:45.362Z,99962.72
2019-05-12T11:24:13.918Z,99961.03
2019-05-12T11:26:43.254Z,99963.11
2019-05-12T11:29:10.724Z,99972.12
2019-05-12T11:31:38.991Z,99973.34
2019-05-12T11:34:07.233Z,99973.27
2019-05-12T11:36:34.724Z,99975.48
2019-05-12T11:39:03.664Z,99977.81
2019-05-12T11:41:33.030Z,99973.28
2019-05-12T11:44:00.508Z,99962.27
2019-05-12T11:46:28.012Z,99963.60
2019-05-12T11:48:55.523Z,99966.20
2019-05-12T11:51:28.884Z,99969.34
2019-05-12T11:53:52.558Z,99973.82
2019-05-12T11:56:20.050Z,99979.13
2019-05-12T11:58:51.497Z,99983.17
2019-05-12T12:01:19.184Z,99976.83
2019-05-12T12:03:46.684Z,99974.20
2019-05-12T12:06:14.194Z,99976.07
2019-05-12T12:08:44.023Z,99976.90
2019-05-12T12:11:18.868Z,99981.97
2019-05-12T12:13:40.164Z,99990.48
2019-05-12T12:16:11.195Z,99975.38
2019-05-12T12:18:36.888Z,99982.05
2019-05-12T12:21:07.607Z,99989.64
2019-05-12T12:23:33.867Z,99983.41
2019-05-12T12:26:01.365Z,99980.72
2019-05-12T12:28:28.896Z,99979.26
2019-05-12T12:30:59.020Z,99987.47
2019-05-12T12:33:31.080Z,99992.45
2019-05-12T12:35:59.350Z,99990.86
2019-05-12T12:38:24.848Z,99995.66
2019-05-12T12:40:53.534Z,99988.17
2019-05-12T12:43:21.324Z,99992.75
2019-05-12T12:46:02.392Z,100001.38
2019-05-12T12:48:30.230Z,100012.55
2019-05-12T12:50:57.725Z,100017.28
2019-05-12T12:53:27.561Z,100025.14
2019-05-12T12:55:54.461Z,100023.13
2019-05-12T12:58:26.897Z,100030.25
2019-05-12T13:00:56.342Z,100029.56
2019-05-12T13:03:27.110Z,100024.80
2019-05-12T13:05:50.734Z,100022.24
2019-05-12T13:08:21.475Z,100026.36
2019-05-12T13:10:51.376Z,100027.52
2019-05-12T13:13:17.012Z,100030.94
2019-05-12T13:15:44.529Z,100034.34
2019-05-12T13:18:17.469Z,100038.27
2019-05-12T13:20:43.448Z,100038.42
2019-05-12T13:23:11.257Z,100041.46
2019-05-12T13:25:47.294Z,100047.59
2019-05-12T13:28:11.829Z,100050.47
2019-05-12T13:30:46.066Z,100056.81
2019-05-12T13:33:08.875Z,100062.25
2019-05-12T13:35:35.736Z,100059.50
2019-05-12T13:38:03.598Z,100049.98
2019-05-12T13:40:37.635Z,100052.55
2019-05-12T13:43:00.329Z,100050.69
2019-05-12T13:45:27.843Z,100052.19
2019-05-12T13:47:55.336Z,100045.23
2019-05-12T13:50:26.226Z,100041.34
2019-05-12T13:52:54.034Z,100058.30
2019-05-12T13:55:23.789Z,100070.79
2019-05-12T13:57:56.401Z,100078.17
2019-05-12T14:00:19.952Z,100073.31
2019-05-12T14:02:49.036Z,100079.92
2019-05-12T14:05:16.662Z,100091.44
2019-05-12T14:07:44.166Z,100092.48
2019-05-12T14:10:13.726Z,100090.05
2019-05-12T14:12:41.009Z,100097.55
2019-05-12T14:15:08.516Z,100094.83
2019-05-12T14:17:40.299Z,100096.19
2019-05-12T14:20:09.289Z,100092.95
2019-05-12T14:22:37.640Z,100101.63
2019-05-12T14:25:05.618Z,100105.39
2019-05-12T14:27:34.237Z,100099.34
2019-05-12T14:30:09.320Z,100105.78
2019-05-12T14:32:33.505Z,100102.93
2019-05-12T14:35:00.989Z,100104.06
2019-05-12T14:37:28.488Z,100099.95
2019-05-12T14:39:55.997Z,100097.23
2019-05-12T14:42:25.981Z,100100.96
2019-05-12T14:44:54.056Z,100100.80
2019-05-12T14:47:27.889Z,100108.80
2019-05-12T14:49:50.967Z,100105.73
2019-05-12T14:52:18.460Z,100105.77
2019-05-12T14:54:45.964Z,100103.55
2019-05-12T14:57:13.936Z,100095.88
2019-05-12T14:59:41.575Z,100098.78
2019-05-12T15:02:09.085Z,100093.15
2019-05-12T15:04:36.676Z,100100.30
2019-05-12T15:07:05.852Z,100103.72
2019-05-12T15:09:34.151Z,100096.19
2019-05-12T15:12:03.641Z,100101.42
2019-05-12T15:14:33.629Z,100108.42
2019-05-12T15:17:00.193Z,100109.78
2019-05-12T15:19:29.764Z,100111.18
2019-05-12T15:22:01.458Z,100107.09
2019-05-12T15:24:26.164Z,100109.54
2019-05-12T15:26:57.513Z,100106.81
2019-05-12T15:29:23.566Z,100103.25
2019-05-12T15:31:54.214Z,100106.62
2019-05-12T15:34:20.705Z,100108.17
2019-05-12T15:36:52.018Z,100106.14
2019-05-12T15:39:17.428Z,100109.48
2019-05-12T15:41:44.937Z,100113.38
2019-05-12T15:44:14.637Z,100105.20
2019-05-12T15:46:46.022Z,100111.88
2019-05-12T15:49:11.705Z,100118.39
2019-05-12T15:51:44.468Z,100117.70
2019-05-12T15:54:11.543Z,100123.15
2019-05-12T15:56:37.673Z,100132.37
2019-05-12T15:59:05.955Z,100132.01
2019-05-12T16:01:33.580Z,100132.98
2019-05-12T16:04:03.508Z,100131.74
2019-05-12T16:06:30.372Z,100136.82
2019-05-12T16:08:57.872Z,100132.28
2019-05-12T16:11:25.385Z,100136.36
2019-05-12T16:13:54.649Z,100131.33
2019-05-12T16:16:24.590Z,100136.36
2019-05-12T16:18:53.456Z,100139.39
2019-05-12T16:21:21.416Z,100132.28
2019-05-12T16:23:48.921Z,100138.23
2019-05-12T16:26:16.431Z,100143.38
2019-05-12T16:28:44.192Z,100145.95
2019-05-12T16:31:11.848Z,100137.79
2019-05-12T16:33:39.368Z,100141.70
2019-05-12T16:36:11.535Z,100132.36
2019-05-12T16:38:36.104Z,100138.15
2019-05-12T16:41:03.914Z,100140.16
2019-05-12T16:43:35.065Z,100140.70
2019-05-12T16:46:00.740Z,100139.21
2019-05-12T16:48:32.897Z,100148.05
2019-05-12T16:50:58.248Z,100137.70
2019-05-12T16:53:27.962Z,100140.42
2019-05-12T16:55:55.047Z,100148.80
2019-05-12T16:58:24.222Z,100142.70
2019-05-12T17:00:53.407Z,100140.48
2019-05-12T17:03:23.530Z,100139.69
2019-05-12T17:05:55.973Z,100151.08
2019-05-12T17:08:19.752Z,100150.61
2019-05-12T17:10:58.371Z,100155.30
2019-05-12T17:13:16.540Z,100154.30
2019-05-12T17:15:48.757Z,100153.20
2019-05-12T17:18:13.701Z,100153.66
2019-05-12T17:20:46.976Z,100158.23
2019-05-12T17:23:10.596Z,100158.48
2019-05-12T17:25:38.116Z,100161.95
2019-05-12T17:28:05.854Z,100164.80
2019-05-12T17:30:34.427Z,100167.47
2019-05-12T17:33:05.040Z,100171.98
2019-05-12T17:35:32.423Z,100165.25
2019-05-12T17:38:00.561Z,100171.89
2019-05-12T17:40:28.061Z,100179.30
2019-05-12T17:42:57.519Z,100181.36
2019-05-12T17:45:24.796Z,100182.19
2019-05-12T17:47:56.883Z,100187.58
2019-05-12T17:50:24.036Z,100183.89
2019-05-12T17:52:58.649Z,100187.61
2019-05-12T17:55:20.000Z,100184.08
2019-05-12T17:57:50.302Z,100194.30
2019-05-12T18:00:17.192Z,100200.11
2019-05-12T18:02:49.475Z,100196.11
2019-05-12T18:05:15.605Z,100200.66
2019-05-12T18:07:44.268Z,100201.97
2019-05-12T18:10:13.548Z,100203.44
2019-05-12T18:12:44.752Z,100209.46
2019-05-12T18:15:10.433Z,100217.50
2019-05-12T18:17:39.066Z,100219.25
2019-05-12T18:20:07.160Z,100216.61
2019-05-12T18:22:39.280Z,100223.80
2019-05-12T18:25:04.510Z,100227.94
2019-05-12T18:27:35.000Z,100233.05
2019-05-12T18:30:04.314Z,100239.00
2019-05-12T18:32:30.540Z,100237.70
2019-05-12T18:34:58.045Z,100242.53
2019-05-12T18:37:25.536Z,100244.33
2019-05-12T18:39:53.600Z,100242.30
2019-05-12T18:42:24.388Z,100258.35
2019-05-12T18:44:51.060Z,100259.62
2019-05-12T18:47:28.786Z,100260.16
2019-05-12T18:49:50.005Z,100265.31
2019-05-12T18:52:17.685Z,100268.59
2019-05-12T18:54:52.284Z,100270.09
2019-05-12T18:57:14.469Z,100270.53
2019-05-12T18:59:46.080Z,100275.81
2019-05-12T19:02:14.698Z,100279.78
2019-05-12T19:04:41.255Z,100271.89
2019-05-12T19:07:08.839Z,100270.34
2019-05-12T19:09:36.340Z,100266.52
2019-05-12T19:12:15.773Z,100274.11
2019-05-12T19:14:38.660Z,100282.33
2019-05-12T19:17:03.756Z,100279.69
2019-05-12T19:19:31.345Z,100283.38
2019-05-12T19:22:06.861Z,100289.41
2019-05-12T19:24:28.068Z,100293.95
2019-05-12T19:26:55.565Z,100296.66
2019-05-12T19:29:24.369Z,100300.95
2019-05-12T19:31:57.670Z,100298.92
2019-05-12T19:34:25.816Z,100303.08
2019-05-12T19:36:51.204Z,100305.19
2019-05-12T19:39:19.485Z,100306.41
2019-05-12T19:41:46.984Z,100308.15
2019-05-12T19:44:14.481Z,100316.47
2019-05-12T19:46:46.059Z,100315.45
2019-05-12T19:49:11.980Z,100318.44
2019-05-12T19:51:39.497Z,100327.03
2019-05-12T19:54:07.013Z,100333.20
2019-05-12T19:56:39.019Z,100329.16
2019-05-12T19:59:04.437Z,100335.83
2019-05-12T20:01:34.312Z,100327.61
2019-05-12T20:04:03.387Z,100333.58
2019-05-12T20:06:30.620Z,100338.86
2019-05-12T20:09:06.132Z,100332.97
2019-05-12T20:11:31.414Z,100341.84
2019-05-12T20:13:56.572Z,100343.25
2019-05-12T20:16:30.225Z,100340.09
2019-05-12T20:18:57.617Z,100341.23
2019-05-12T20:21:25.906Z,100349.27
2019-05-12T20:23:51.768Z,100355.22
2019-05-12T20:26:19.280Z,100352.67
2019-05-12T20:28:50.490Z,100357.42
2019-05-12T20:31:16.006Z,100365.34
2019-05-12T20:33:43.605Z,100361.75
2019-05-12T20:36:11.200Z,100362.59
2019-05-12T20:38:40.690Z,100373.94
2019-05-12T20:41:10.355Z,100367.30
2019-05-12T20:43:41.237Z,100376.13
2019-05-12T20:46:06.833Z,100386.34
2019-05-12T20:48:34.389Z,100384.89
2019-05-12T20:51:03.507Z,100380.98
2019-05-12T20:53:33.458Z,100394.47
2019-05-12T20:56:00.497Z,100390.19
2019-05-12T20:58:34.167Z,100392.66
2019-05-12T21:00:57.221Z,100398.16
2019-05-12T21:03:24.764Z,100393.28
2019-05-12T21:05:58.226Z,100391.19
2019-05-12T21:08:23.633Z,100401.70
2019-05-12T21:10:51.315Z,100406.14
2019-05-12T21:13:20.331Z,100405.19
2019-05-12T21:15:48.042Z,100409.11
2019-05-12T21:18:15.544Z,100409.38
2019-05-12T21:20:46.525Z,100412.76
2019-05-12T21:23:13.509Z,100415.72
2019-05-12T21:25:43.835Z,100417.92
2019-05-12T21:28:10.485Z,100415.22
2019-05-12T21:30:42.478Z,100426.26
2019-05-12T21:33:07.974Z,100424.89
2019-05-12T21:35:40.660Z,100423.66
2019-05-12T21:38:05.468Z,100421.46
2019-05-12T21:40:34.949Z,100431.27
2019-05-12T21:43:04.089Z,100425.88
2019-05-12T21:45:33.445Z,100432.34
2019-05-12T21:48:00.649Z,100429.84
2019-05-12T21:50:32.652Z,100435.28
2019-05-12T21:52:59.888Z,100438.67
2019-05-12T21:55:26.829Z,100449.69
2019-05-12T21:57:54.372Z,100449.91
2019-05-12T22:00:24.373Z,100457.11
2019-05-12T22:02:53.392Z,100457.33
2019-05-12T22:05:37.784Z,100463.08
2019-05-12T22:07:51.422Z,100462.73
2019-05-12T22:10:25.197Z,100465.39
2019-05-12T22:12:48.201Z,100462.70
2019-05-12T22:15:24.267Z,100464.63
2019-05-12T22:18:00.684Z,100465.32
2019-05-12T22:20:29.875Z,100463.91
2019-05-12T22:23:00.556Z,100466.00
2019-05-12T22:25:26.599Z,100467.50
2019-05-12T22:27:59.028Z,100472.88
2019-05-12T22:30:24.082Z,100477.97
2019-05-12T22:32:54.020Z,100481.19
2019-05-12T22:35:22.210Z,100480.35
2019-05-12T22:37:50.194Z,100478.17
2019-05-12T22:40:19.378Z,100473.10
2019-05-12T22:42:50.685Z,100468.97
2019-05-12T22:45:16.177Z,100472.80
2019-05-12T22:47:44.031Z,100477.25
2019-05-12T22:50:13.611Z,100474.40
2019-05-12T22:52:45.172Z,100473.76
2019-05-12T22:55:10.100Z,100475.69
2019-05-12T22:57:40.051Z,100471.33
2019-05-12T23:00:07.198Z,100476.05
2019-05-12T23:02:34.977Z,100480.55
2019-05-12T23:05:03.628Z,100485.20
2019-05-12T23:07:33.147Z,100481.84
2019-05-12T23:10:05.958Z,100484.96
2019-05-12T23:12:29.808Z,100485.24
2019-05-12T23:15:02.935Z,100487.27
2019-05-12T23:17:27.405Z,100485.88
2019-05-12T23:19:55.838Z,100486.12
2019-05-12T23:22:23.739Z,100485.92
2019-05-12T23:24:51.260Z,100487.42
2019-05-12T23:27:24.163Z,100491.83
2019-05-12T23:29:49.034Z,100489.10
2019-05-12T23:32:16.524Z,100491.64
2019-05-12T23:34:47.110Z,100494.85
2019-05-12T23:37:14.170Z,100485.30
2019-05-12T23:39:43.824Z,100487.45
2019-05-12T23:42:13.442Z,100492.55
2019-05-12T23:44:40.284Z,100487.89
2019-05-12T23:47:07.842Z,100499.19
2019-05-12T23:49:36.116Z,100495.97
2019-05-12T23:52:03.965Z,100495.92
2019-05-12T23:54:34.260Z,100487.95
2019-05-12T23:57:03.893Z,100492.84
2019-05-12T23:59:33.455Z,100486.74
